sensor_id;sensor_type;location;lat;lon;timestamp;P1;durP1;ratioP1;P2;durP2;ratioP2
10523;SDS011;5310;48.638;9.060;2024-03-02T00:00:13;1.10;;;1.10;;
10523;SDS011;5310;48.638;9.060;2024-03-02T00:02:43;1.10;;;1.10;;
10523;SDS011;5310;48.638;9.060;2024-03-02T00:05:19;1.10;;;1.10;;
10523;SDS011;5310;48.638;9.060;2024-03-02T00:07:47;1.10;;;1.10;;
10523;SDS011;5310;48.638;9.060;2024-03-02T00:10:34;1.10;;;1.10;;
10523;SDS011;5310;48.638;9.060;2024-03-02T00:13:03;1.10;;;1.10;;
10523;SDS011;5310;48.638;9.060;2024-03-02T00:15:45;1.10;;;1.10;;
10523;SDS011;5310;48.638;9.060;2024-03-02T00:18:13;1.10;;;1.10;;
10523;SDS011;5310;48.638;9.060;2024-03-02T00:20:41;1.10;;;1.10;;
10523;SDS011;5310;48.638;9.060;2024-03-02T00:23:07;1.10;;;1.10;;
10523;SDS011;5310;48.638;9.060;2024-03-02T00:25:39;1.10;;;1.10;;
10523;SDS011;5310;48.638;9.060;2024-03-02T00:28:09;1.10;;;1.10;;
10523;SDS011;5310;48.638;9.060;2024-03-02T00:30:47;1.10;;;1.10;;
10523;SDS011;5310;48.638;9.060;2024-03-02T00:33:18;1.10;;;1.10;;
10523;SDS011;5310;48.638;9.060;2024-03-02T00:35:45;1.10;;;1.10;;
10523;SDS011;5310;48.638;9.060;2024-03-02T00:38:11;1.10;;;1.10;;
10523;SDS011;5310;48.638;9.060;2024-03-02T00:40:37;1.10;;;1.10;;
10523;SDS011;5310;48.638;9.060;2024-03-02T00:43:03;1.10;;;1.10;;
10523;SDS011;5310;48.638;9.060;2024-03-02T00:45:29;1.10;;;1.10;;
10523;SDS011;5310;48.638;9.060;2024-03-02T00:47:55;1.00;;;1.00;;
10523;SDS011;5310;48.638;9.060;2024-03-02T00:50:21;1.10;;;1.10;;
10523;SDS011;5310;48.638;9.060;2024-03-02T00:52:47;1.10;;;1.10;;
10523;SDS011;5310;48.638;9.060;2024-03-02T00:55:14;1.10;;;1.10;;
10523;SDS011;5310;48.638;9.060;2024-03-02T00:57:40;1.10;;;1.10;;
10523;SDS011;5310;48.638;9.060;2024-03-02T01:00:06;1.00;;;1.00;;
10523;SDS011;5310;48.638;9.060;2024-03-02T01:02:35;1.10;;;1.10;;
10523;SDS011;5310;48.638;9.060;2024-03-02T01:05:01;1.10;;;1.10;;
10523;SDS011;5310;48.638;9.060;2024-03-02T01:07:27;1.10;;;1.10;;
10523;SDS011;5310;48.638;9.060;2024-03-02T01:09:52;1.00;;;1.00;;
10523;SDS011;5310;48.638;9.060;2024-03-02T01:12:18;1.10;;;1.10;;
10523;SDS011;5310;48.638;9.060;2024-03-02T01:14:44;1.10;;;1.10;;
10523;SDS011;5310;48.638;9.060;2024-03-02T01:17:10;1.10;;;1.10;;
10523;SDS011;5310;48.638;9.060;2024-03-02T01:19:36;1.00;;;1.00;;
10523;SDS011;5310;48.638;9.060;2024-03-02T01:22:03;1.10;;;1.10;;
10523;SDS011;5310;48.638;9.060;2024-03-02T01:24:29;1.10;;;1.10;;
10523;SDS011;5310;48.638;9.060;2024-03-02T01:26:55;1.10;;;1.10;;
10523;SDS011;5310;48.638;9.060;2024-03-02T01:29:21;1.10;;;1.10;;
10523;SDS011;5310;48.638;9.060;2024-03-02T01:31:47;1.10;;;1.10;;
10523;SDS011;5310;48.638;9.060;2024-03-02T01:34:13;1.10;;;1.10;;
10523;SDS011;5310;48.638;9.060;2024-03-02T01:36:39;1.10;;;1.10;;
10523;SDS011;5310;48.638;9.060;2024-03-02T01:39:05;1.10;;;1.10;;
10523;SDS011;5310;48.638;9.060;2024-03-02T01:41:34;1.20;;;1.20;;
10523;SDS011;5310;48.638;9.060;2024-03-02T01:44:00;1.10;;;1.10;;
10523;SDS011;5310;48.638;9.060;2024-03-02T01:46:26;1.10;;;1.10;;
10523;SDS011;5310;48.638;9.060;2024-03-02T01:48:52;1.10;;;1.10;;
10523;SDS011;5310;48.638;9.060;2024-03-02T01:51:18;1.10;;;1.10;;
10523;SDS011;5310;48.638;9.060;2024-03-02T01:53:44;1.10;;;1.10;;
10523;SDS011;5310;48.638;9.060;2024-03-02T01:56:09;1.10;;;1.10;;
10523;SDS011;5310;48.638;9.060;2024-03-02T01:58:36;1.10;;;1.10;;
10523;SDS011;5310;48.638;9.060;2024-03-02T02:01:02;1.10;;;1.10;;
10523;SDS011;5310;48.638;9.060;2024-03-02T02:03:28;1.10;;;1.10;;
10523;SDS011;5310;48.638;9.060;2024-03-02T02:05:54;1.10;;;1.10;;
10523;SDS011;5310;48.638;9.060;2024-03-02T02:08:20;1.00;;;1.00;;
10523;SDS011;5310;48.638;9.060;2024-03-02T02:10:46;1.10;;;1.10;;
10523;SDS011;5310;48.638;9.060;2024-03-02T02:13:11;1.10;;;1.10;;
10523;SDS011;5310;48.638;9.060;2024-03-02T02:15:38;1.10;;;1.10;;
10523;SDS011;5310;48.638;9.060;2024-03-02T02:18:04;1.10;;;1.10;;
10523;SDS011;5310;48.638;9.060;2024-03-02T02:20:30;1.13;;;1.13;;
10523;SDS011;5310;48.638;9.060;2024-03-02T02:25:22;1.10;;;1.10;;
10523;SDS011;5310;48.638;9.060;2024-03-02T02:27:48;1.10;;;1.10;;
10523;SDS011;5310;48.638;9.060;2024-03-02T02:30:14;1.10;;;1.10;;
10523;SDS011;5310;48.638;9.060;2024-03-02T02:32:44;1.20;;;1.20;;
10523;SDS011;5310;48.638;9.060;2024-03-02T02:35:10;1.10;;;1.10;;
10523;SDS011;5310;48.638;9.060;2024-03-02T02:37:36;1.20;;;1.20;;
10523;SDS011;5310;48.638;9.060;2024-03-02T02:40:03;1.10;;;1.10;;
10523;SDS011;5310;48.638;9.060;2024-03-02T02:42:29;1.10;;;1.10;;
10523;SDS011;5310;48.638;9.060;2024-03-02T02:44:55;1.10;;;1.10;;
10523;SDS011;5310;48.638;9.060;2024-03-02T02:47:21;1.20;;;1.20;;
10523;SDS011;5310;48.638;9.060;2024-03-02T02:49:47;1.20;;;1.20;;
10523;SDS011;5310;48.638;9.060;2024-03-02T02:52:13;1.20;;;1.20;;
10523;SDS011;5310;48.638;9.060;2024-03-02T02:54:39;1.20;;;1.20;;
10523;SDS011;5310;48.638;9.060;2024-03-02T02:57:05;1.10;;;1.10;;
10523;SDS011;5310;48.638;9.060;2024-03-02T02:59:31;1.20;;;1.20;;
10523;SDS011;5310;48.638;9.060;2024-03-02T03:01:57;1.10;;;1.10;;
10523;SDS011;5310;48.638;9.060;2024-03-02T03:04:23;1.10;;;1.10;;
10523;SDS011;5310;48.638;9.060;2024-03-02T03:06:49;1.10;;;1.10;;
10523;SDS011;5310;48.638;9.060;2024-03-02T03:09:15;1.20;;;1.20;;
10523;SDS011;5310;48.638;9.060;2024-03-02T03:11:41;1.10;;;1.10;;
10523;SDS011;5310;48.638;9.060;2024-03-02T03:14:07;1.20;;;1.20;;
10523;SDS011;5310;48.638;9.060;2024-03-02T03:16:33;1.10;;;1.10;;
10523;SDS011;5310;48.638;9.060;2024-03-02T03:18:59;1.20;;;1.20;;
10523;SDS011;5310;48.638;9.060;2024-03-02T03:21:26;1.10;;;1.10;;
10523;SDS011;5310;48.638;9.060;2024-03-02T03:23:52;1.10;;;1.10;;
10523;SDS011;5310;48.638;9.060;2024-03-02T03:26:17;1.20;;;1.20;;
10523;SDS011;5310;48.638;9.060;2024-03-02T03:28:43;1.20;;;1.20;;
10523;SDS011;5310;48.638;9.060;2024-03-02T03:31:09;1.10;;;1.10;;
10523;SDS011;5310;48.638;9.060;2024-03-02T03:33:35;1.20;;;1.20;;
10523;SDS011;5310;48.638;9.060;2024-03-02T03:36:01;1.17;;;1.17;;
10523;SDS011;5310;48.638;9.060;2024-03-02T03:38:28;1.30;;;1.30;;
10523;SDS011;5310;48.638;9.060;2024-03-02T03:40:54;1.20;;;1.20;;
10523;SDS011;5310;48.638;9.060;2024-03-02T03:43:20;1.20;;;1.20;;
10523;SDS011;5310;48.638;9.060;2024-03-02T03:45:46;1.20;;;1.20;;
10523;SDS011;5310;48.638;9.060;2024-03-02T03:48:12;1.20;;;1.20;;
10523;SDS011;5310;48.638;9.060;2024-03-02T03:50:38;1.20;;;1.20;;
10523;SDS011;5310;48.638;9.060;2024-03-02T03:53:04;1.20;;;1.20;;
10523;SDS011;5310;48.638;9.060;2024-03-02T03:55:30;1.10;;;1.10;;
10523;SDS011;5310;48.638;9.060;2024-03-02T03:57:56;1.23;;;1.23;;
10523;SDS011;5310;48.638;9.060;2024-03-02T04:00:22;1.20;;;1.20;;
10523;SDS011;5310;48.638;9.060;2024-03-02T04:02:48;1.30;;;1.30;;
10523;SDS011;5310;48.638;9.060;2024-03-02T04:05:14;1.10;;;1.10;;
10523;SDS011;5310;48.638;9.060;2024-03-02T04:07:40;1.13;;;1.13;;
10523;SDS011;5310;48.638;9.060;2024-03-02T04:10:08;1.20;;;1.20;;
10523;SDS011;5310;48.638;9.060;2024-03-02T04:12:34;1.20;;;1.20;;
10523;SDS011;5310;48.638;9.060;2024-03-02T04:15:01;1.20;;;1.20;;
10523;SDS011;5310;48.638;9.060;2024-03-02T04:17:28;1.10;;;1.10;;
10523;SDS011;5310;48.638;9.060;2024-03-02T04:19:54;1.13;;;1.13;;
10523;SDS011;5310;48.638;9.060;2024-03-02T04:22:20;1.10;;;1.10;;
10523;SDS011;5310;48.638;9.060;2024-03-02T04:24:46;1.20;;;1.20;;
10523;SDS011;5310;48.638;9.060;2024-03-02T04:27:12;1.20;;;1.20;;
10523;SDS011;5310;48.638;9.060;2024-03-02T04:29:38;1.13;;;1.13;;
10523;SDS011;5310;48.638;9.060;2024-03-02T04:32:04;1.20;;;1.20;;
10523;SDS011;5310;48.638;9.060;2024-03-02T04:34:29;1.10;;;1.10;;
10523;SDS011;5310;48.638;9.060;2024-03-02T04:36:55;1.10;;;1.10;;
10523;SDS011;5310;48.638;9.060;2024-03-02T04:39:21;1.20;;;1.20;;
10523;SDS011;5310;48.638;9.060;2024-03-02T04:41:47;1.10;;;1.10;;
10523;SDS011;5310;48.638;9.060;2024-03-02T04:44:13;1.20;;;1.20;;
10523;SDS011;5310;48.638;9.060;2024-03-02T04:46:39;1.20;;;1.20;;
10523;SDS011;5310;48.638;9.060;2024-03-02T04:49:05;1.20;;;1.20;;
10523;SDS011;5310;48.638;9.060;2024-03-02T04:51:31;1.30;;;1.30;;
10523;SDS011;5310;48.638;9.060;2024-03-02T04:53:57;1.20;;;1.20;;
10523;SDS011;5310;48.638;9.060;2024-03-02T04:56:23;1.20;;;1.20;;
10523;SDS011;5310;48.638;9.060;2024-03-02T04:59:05;1.30;;;1.30;;
10523;SDS011;5310;48.638;9.060;2024-03-02T05:01:31;1.20;;;1.20;;
10523;SDS011;5310;48.638;9.060;2024-03-02T05:03:58;1.20;;;1.20;;
10523;SDS011;5310;48.638;9.060;2024-03-02T05:06:24;1.20;;;1.20;;
10523;SDS011;5310;48.638;9.060;2024-03-02T05:08:50;1.30;;;1.30;;
10523;SDS011;5310;48.638;9.060;2024-03-02T05:11:16;1.20;;;1.20;;
10523;SDS011;5310;48.638;9.060;2024-03-02T05:14:13;1.20;;;1.20;;
10523;SDS011;5310;48.638;9.060;2024-03-02T05:16:39;1.20;;;1.20;;
10523;SDS011;5310;48.638;9.060;2024-03-02T05:19:06;1.20;;;1.20;;
10523;SDS011;5310;48.638;9.060;2024-03-02T05:21:32;1.20;;;1.20;;
10523;SDS011;5310;48.638;9.060;2024-03-02T05:23:58;1.20;;;1.20;;
10523;SDS011;5310;48.638;9.060;2024-03-02T05:26:24;1.20;;;1.20;;
10523;SDS011;5310;48.638;9.060;2024-03-02T05:28:50;1.20;;;1.20;;
10523;SDS011;5310;48.638;9.060;2024-03-02T05:31:16;1.20;;;1.20;;
10523;SDS011;5310;48.638;9.060;2024-03-02T05:33:42;1.23;;;1.23;;
10523;SDS011;5310;48.638;9.060;2024-03-02T05:36:08;1.20;;;1.20;;
10523;SDS011;5310;48.638;9.060;2024-03-02T05:38:34;1.20;;;1.20;;
10523;SDS011;5310;48.638;9.060;2024-03-02T05:41:00;1.10;;;1.10;;
10523;SDS011;5310;48.638;9.060;2024-03-02T05:43:26;1.30;;;1.30;;
10523;SDS011;5310;48.638;9.060;2024-03-02T05:45:52;1.20;;;1.20;;
10523;SDS011;5310;48.638;9.060;2024-03-02T05:48:18;1.20;;;1.20;;
10523;SDS011;5310;48.638;9.060;2024-03-02T05:50:44;1.20;;;1.20;;
10523;SDS011;5310;48.638;9.060;2024-03-02T05:53:10;1.20;;;1.20;;
10523;SDS011;5310;48.638;9.060;2024-03-02T05:55:36;1.20;;;1.20;;
10523;SDS011;5310;48.638;9.060;2024-03-02T05:58:02;1.20;;;1.20;;
10523;SDS011;5310;48.638;9.060;2024-03-02T06:00:28;1.20;;;1.20;;
10523;SDS011;5310;48.638;9.060;2024-03-02T06:02:55;1.20;;;1.20;;
10523;SDS011;5310;48.638;9.060;2024-03-02T06:05:21;1.20;;;1.20;;
10523;SDS011;5310;48.638;9.060;2024-03-02T06:07:47;1.20;;;1.20;;
10523;SDS011;5310;48.638;9.060;2024-03-02T06:10:13;1.27;;;1.27;;
10523;SDS011;5310;48.638;9.060;2024-03-02T06:12:39;1.20;;;1.20;;
10523;SDS011;5310;48.638;9.060;2024-03-02T06:15:05;1.20;;;1.20;;
10523;SDS011;5310;48.638;9.060;2024-03-02T06:17:34;1.20;;;1.20;;
10523;SDS011;5310;48.638;9.060;2024-03-02T06:20:00;1.17;;;1.17;;
10523;SDS011;5310;48.638;9.060;2024-03-02T06:22:26;1.20;;;1.20;;
10523;SDS011;5310;48.638;9.060;2024-03-02T06:24:52;1.20;;;1.20;;
10523;SDS011;5310;48.638;9.060;2024-03-02T06:27:18;1.20;;;1.20;;
10523;SDS011;5310;48.638;9.060;2024-03-02T06:29:45;1.20;;;1.20;;
10523;SDS011;5310;48.638;9.060;2024-03-02T06:32:11;1.20;;;1.20;;
10523;SDS011;5310;48.638;9.060;2024-03-02T06:34:37;1.20;;;1.20;;
10523;SDS011;5310;48.638;9.060;2024-03-02T06:37:02;1.20;;;1.20;;
10523;SDS011;5310;48.638;9.060;2024-03-02T06:39:28;1.20;;;1.20;;
10523;SDS011;5310;48.638;9.060;2024-03-02T06:41:56;1.20;;;1.20;;
10523;SDS011;5310;48.638;9.060;2024-03-02T06:44:22;1.20;;;1.20;;
10523;SDS011;5310;48.638;9.060;2024-03-02T06:46:48;1.10;;;1.10;;
10523;SDS011;5310;48.638;9.060;2024-03-02T06:49:13;1.17;;;1.17;;
10523;SDS011;5310;48.638;9.060;2024-03-02T06:51:39;1.20;;;1.20;;
10523;SDS011;5310;48.638;9.060;2024-03-02T06:54:07;1.20;;;1.20;;
10523;SDS011;5310;48.638;9.060;2024-03-02T06:56:33;1.10;;;1.10;;
10523;SDS011;5310;48.638;9.060;2024-03-02T06:58:59;1.20;;;1.20;;
10523;SDS011;5310;48.638;9.060;2024-03-02T07:01:25;1.23;;;1.23;;
10523;SDS011;5310;48.638;9.060;2024-03-02T07:03:51;1.10;;;1.10;;
10523;SDS011;5310;48.638;9.060;2024-03-02T07:06:17;1.17;;;1.17;;
10523;SDS011;5310;48.638;9.060;2024-03-02T07:08:43;1.20;;;1.20;;
10523;SDS011;5310;48.638;9.060;2024-03-02T07:11:09;1.10;;;1.10;;
10523;SDS011;5310;48.638;9.060;2024-03-02T07:13:35;1.10;;;1.10;;
10523;SDS011;5310;48.638;9.060;2024-03-02T07:16:01;1.10;;;1.10;;
10523;SDS011;5310;48.638;9.060;2024-03-02T07:18:46;1.17;;;1.17;;
10523;SDS011;5310;48.638;9.060;2024-03-02T07:21:16;1.17;;;1.17;;
10523;SDS011;5310;48.638;9.060;2024-03-02T07:23:42;1.20;;;1.20;;
10523;SDS011;5310;48.638;9.060;2024-03-02T07:26:08;1.10;;;1.10;;
10523;SDS011;5310;48.638;9.060;2024-03-02T07:28:35;1.10;;;1.10;;
10523;SDS011;5310;48.638;9.060;2024-03-02T07:31:02;1.10;;;1.10;;
10523;SDS011;5310;48.638;9.060;2024-03-02T07:33:29;1.20;;;1.20;;
10523;SDS011;5310;48.638;9.060;2024-03-02T07:35:55;1.10;;;1.10;;
10523;SDS011;5310;48.638;9.060;2024-03-02T07:38:21;1.10;;;1.10;;
10523;SDS011;5310;48.638;9.060;2024-03-02T07:40:48;1.20;;;1.20;;
10523;SDS011;5310;48.638;9.060;2024-03-02T07:43:18;1.20;;;1.20;;
10523;SDS011;5310;48.638;9.060;2024-03-02T07:45:47;1.20;;;1.20;;
10523;SDS011;5310;48.638;9.060;2024-03-02T07:48:14;1.10;;;1.10;;
10523;SDS011;5310;48.638;9.060;2024-03-02T07:50:39;1.10;;;1.10;;
10523;SDS011;5310;48.638;9.060;2024-03-02T07:53:05;1.10;;;1.10;;
10523;SDS011;5310;48.638;9.060;2024-03-02T07:55:32;1.17;;;1.17;;
10523;SDS011;5310;48.638;9.060;2024-03-02T07:57:58;1.10;;;1.10;;
10523;SDS011;5310;48.638;9.060;2024-03-02T08:00:24;1.10;;;1.10;;
10523;SDS011;5310;48.638;9.060;2024-03-02T08:02:51;1.17;;;1.17;;
10523;SDS011;5310;48.638;9.060;2024-03-02T08:05:17;1.10;;;1.10;;
10523;SDS011;5310;48.638;9.060;2024-03-02T08:07:46;1.10;;;1.10;;
10523;SDS011;5310;48.638;9.060;2024-03-02T08:10:12;1.10;;;1.10;;
10523;SDS011;5310;48.638;9.060;2024-03-02T08:12:39;1.20;;;1.20;;
10523;SDS011;5310;48.638;9.060;2024-03-02T08:15:05;1.10;;;1.10;;
10523;SDS011;5310;48.638;9.060;2024-03-02T08:17:33;1.10;;;1.10;;
10523;SDS011;5310;48.638;9.060;2024-03-02T08:19:58;1.10;;;1.10;;
10523;SDS011;5310;48.638;9.060;2024-03-02T08:22:24;1.10;;;1.10;;
10523;SDS011;5310;48.638;9.060;2024-03-02T08:24:50;1.10;;;1.10;;
10523;SDS011;5310;48.638;9.060;2024-03-02T08:27:17;1.10;;;1.10;;
10523;SDS011;5310;48.638;9.060;2024-03-02T08:29:43;1.07;;;1.07;;
10523;SDS011;5310;48.638;9.060;2024-03-02T08:32:09;1.10;;;1.10;;
10523;SDS011;5310;48.638;9.060;2024-03-02T08:34:34;1.10;;;1.10;;
10523;SDS011;5310;48.638;9.060;2024-03-02T08:37:01;1.10;;;1.10;;
10523;SDS011;5310;48.638;9.060;2024-03-02T08:39:27;1.10;;;1.10;;
10523;SDS011;5310;48.638;9.060;2024-03-02T08:41:53;1.00;;;1.00;;
10523;SDS011;5310;48.638;9.060;2024-03-02T08:44:19;1.10;;;1.10;;
10523;SDS011;5310;48.638;9.060;2024-03-02T08:46:45;1.10;;;1.10;;
10523;SDS011;5310;48.638;9.060;2024-03-02T08:49:12;1.00;;;1.00;;
10523;SDS011;5310;48.638;9.060;2024-03-02T08:51:38;1.00;;;1.00;;
10523;SDS011;5310;48.638;9.060;2024-03-02T08:54:04;1.10;;;1.10;;
10523;SDS011;5310;48.638;9.060;2024-03-02T08:56:30;1.00;;;1.00;;
10523;SDS011;5310;48.638;9.060;2024-03-02T08:58:56;1.00;;;1.00;;
10523;SDS011;5310;48.638;9.060;2024-03-02T09:01:22;1.00;;;1.00;;
10523;SDS011;5310;48.638;9.060;2024-03-02T09:03:48;1.00;;;1.00;;
10523;SDS011;5310;48.638;9.060;2024-03-02T09:06:16;1.00;;;1.00;;
10523;SDS011;5310;48.638;9.060;2024-03-02T09:08:44;1.00;;;1.00;;
10523;SDS011;5310;48.638;9.060;2024-03-02T09:11:10;1.00;;;1.00;;
10523;SDS011;5310;48.638;9.060;2024-03-02T09:13:36;0.90;;;0.90;;
10523;SDS011;5310;48.638;9.060;2024-03-02T09:16:03;1.00;;;1.00;;
10523;SDS011;5310;48.638;9.060;2024-03-02T09:18:29;1.07;;;1.07;;
10523;SDS011;5310;48.638;9.060;2024-03-02T09:20:55;0.90;;;0.90;;
10523;SDS011;5310;48.638;9.060;2024-03-02T09:23:21;1.00;;;1.00;;
10523;SDS011;5310;48.638;9.060;2024-03-02T09:25:48;1.00;;;1.00;;
10523;SDS011;5310;48.638;9.060;2024-03-02T09:28:15;0.90;;;0.90;;
10523;SDS011;5310;48.638;9.060;2024-03-02T09:30:41;1.00;;;1.00;;
10523;SDS011;5310;48.638;9.060;2024-03-02T09:33:07;0.90;;;0.90;;
10523;SDS011;5310;48.638;9.060;2024-03-02T09:35:32;1.00;;;1.00;;
10523;SDS011;5310;48.638;9.060;2024-03-02T09:37:58;0.90;;;0.90;;
10523;SDS011;5310;48.638;9.060;2024-03-02T09:40:24;1.00;;;1.00;;
10523;SDS011;5310;48.638;9.060;2024-03-02T09:42:50;1.00;;;1.00;;
10523;SDS011;5310;48.638;9.060;2024-03-02T09:45:22;0.80;;;0.80;;
10523;SDS011;5310;48.638;9.060;2024-03-02T09:47:49;0.97;;;0.97;;
10523;SDS011;5310;48.638;9.060;2024-03-02T09:50:16;0.90;;;0.90;;
10523;SDS011;5310;48.638;9.060;2024-03-02T09:52:42;1.00;;;1.00;;
10523;SDS011;5310;48.638;9.060;2024-03-02T09:55:08;1.00;;;1.00;;
10523;SDS011;5310;48.638;9.060;2024-03-02T09:57:35;1.00;;;1.00;;
10523;SDS011;5310;48.638;9.060;2024-03-02T10:00:02;0.90;;;0.90;;
10523;SDS011;5310;48.638;9.060;2024-03-02T10:02:28;0.90;;;0.90;;
10523;SDS011;5310;48.638;9.060;2024-03-02T10:04:54;0.90;;;0.90;;
10523;SDS011;5310;48.638;9.060;2024-03-02T10:07:20;0.90;;;0.90;;
10523;SDS011;5310;48.638;9.060;2024-03-02T10:09:47;0.97;;;0.97;;
10523;SDS011;5310;48.638;9.060;2024-03-02T10:12:15;0.97;;;0.97;;
10523;SDS011;5310;48.638;9.060;2024-03-02T10:14:41;1.00;;;1.00;;
10523;SDS011;5310;48.638;9.060;2024-03-02T10:17:08;0.97;;;0.97;;
10523;SDS011;5310;48.638;9.060;2024-03-02T10:19:34;0.90;;;0.90;;
10523;SDS011;5310;48.638;9.060;2024-03-02T10:22:02;0.90;;;0.90;;
10523;SDS011;5310;48.638;9.060;2024-03-02T10:24:38;0.97;;;0.97;;
10523;SDS011;5310;48.638;9.060;2024-03-02T10:27:15;0.90;;;0.90;;
10523;SDS011;5310;48.638;9.060;2024-03-02T10:29:42;0.93;;;0.93;;
10523;SDS011;5310;48.638;9.060;2024-03-02T10:32:08;0.90;;;0.90;;
10523;SDS011;5310;48.638;9.060;2024-03-02T10:34:36;1.00;;;1.00;;
10523;SDS011;5310;48.638;9.060;2024-03-02T10:37:02;1.00;;;1.00;;
10523;SDS011;5310;48.638;9.060;2024-03-02T10:39:28;0.90;;;0.90;;
10523;SDS011;5310;48.638;9.060;2024-03-02T10:41:55;0.90;;;0.90;;
10523;SDS011;5310;48.638;9.060;2024-03-02T10:44:21;1.00;;;1.00;;
10523;SDS011;5310;48.638;9.060;2024-03-02T10:46:48;1.00;;;1.00;;
10523;SDS011;5310;48.638;9.060;2024-03-02T10:49:15;0.90;;;0.90;;
10523;SDS011;5310;48.638;9.060;2024-03-02T10:51:42;0.90;;;0.90;;
10523;SDS011;5310;48.638;9.060;2024-03-02T10:54:09;0.90;;;0.90;;
10523;SDS011;5310;48.638;9.060;2024-03-02T10:56:38;0.93;;;0.93;;
10523;SDS011;5310;48.638;9.060;2024-03-02T10:59:16;0.90;;;0.90;;
10523;SDS011;5310;48.638;9.060;2024-03-02T11:01:50;0.87;;;0.87;;
10523;SDS011;5310;48.638;9.060;2024-03-02T11:04:16;0.97;;;0.97;;
10523;SDS011;5310;48.638;9.060;2024-03-02T11:06:45;0.90;;;0.90;;
10523;SDS011;5310;48.638;9.060;2024-03-02T11:09:13;0.90;;;0.90;;
10523;SDS011;5310;48.638;9.060;2024-03-02T11:11:40;0.93;;;0.93;;
10523;SDS011;5310;48.638;9.060;2024-03-02T11:14:10;1.00;;;1.00;;
10523;SDS011;5310;48.638;9.060;2024-03-02T11:16:43;1.00;;;1.00;;
10523;SDS011;5310;48.638;9.060;2024-03-02T11:19:13;0.90;;;0.90;;
10523;SDS011;5310;48.638;9.060;2024-03-02T11:21:39;0.90;;;0.90;;
10523;SDS011;5310;48.638;9.060;2024-03-02T11:26:47;1.00;;;1.00;;
10523;SDS011;5310;48.638;9.060;2024-03-02T11:29:42;1.00;;;1.00;;
10523;SDS011;5310;48.638;9.060;2024-03-02T11:32:20;0.90;;;0.90;;
10523;SDS011;5310;48.638;9.060;2024-03-02T11:34:48;0.90;;;0.90;;
10523;SDS011;5310;48.638;9.060;2024-03-02T11:37:15;1.00;;;1.00;;
10523;SDS011;5310;48.638;9.060;2024-03-02T11:39:42;0.97;;;0.97;;
10523;SDS011;5310;48.638;9.060;2024-03-02T11:42:09;1.00;;;1.00;;
10523;SDS011;5310;48.638;9.060;2024-03-02T11:44:35;0.90;;;0.90;;
10523;SDS011;5310;48.638;9.060;2024-03-02T11:47:05;1.00;;;1.00;;
10523;SDS011;5310;48.638;9.060;2024-03-02T11:49:53;1.00;;;1.00;;
10523;SDS011;5310;48.638;9.060;2024-03-02T11:52:19;0.90;;;0.90;;
10523;SDS011;5310;48.638;9.060;2024-03-02T11:54:47;0.97;;;0.97;;
10523;SDS011;5310;48.638;9.060;2024-03-02T11:57:23;0.90;;;0.90;;
10523;SDS011;5310;48.638;9.060;2024-03-02T11:59:48;1.00;;;1.00;;
10523;SDS011;5310;48.638;9.060;2024-03-02T12:02:21;0.93;;;0.93;;
10523;SDS011;5310;48.638;9.060;2024-03-02T12:04:48;0.70;;;0.70;;
10523;SDS011;5310;48.638;9.060;2024-03-02T12:07:18;0.90;;;0.90;;
10523;SDS011;5310;48.638;9.060;2024-03-02T12:09:45;0.90;;;0.90;;
10523;SDS011;5310;48.638;9.060;2024-03-02T12:12:11;1.00;;;1.00;;
10523;SDS011;5310;48.638;9.060;2024-03-02T12:14:40;0.90;;;0.90;;
10523;SDS011;5310;48.638;9.060;2024-03-02T12:17:05;1.00;;;1.00;;
10523;SDS011;5310;48.638;9.060;2024-03-02T12:19:32;1.00;;;1.00;;
10523;SDS011;5310;48.638;9.060;2024-03-02T12:22:01;0.90;;;0.90;;
10523;SDS011;5310;48.638;9.060;2024-03-02T12:24:28;1.00;;;1.00;;
10523;SDS011;5310;48.638;9.060;2024-03-02T12:26:54;0.90;;;0.90;;
10523;SDS011;5310;48.638;9.060;2024-03-02T12:29:21;0.90;;;0.90;;
10523;SDS011;5310;48.638;9.060;2024-03-02T12:31:49;0.90;;;0.90;;
10523;SDS011;5310;48.638;9.060;2024-03-02T12:34:16;0.90;;;0.90;;
10523;SDS011;5310;48.638;9.060;2024-03-02T12:36:42;0.93;;;0.93;;
10523;SDS011;5310;48.638;9.060;2024-03-02T12:39:12;1.00;;;1.00;;
10523;SDS011;5310;48.638;9.060;2024-03-02T12:41:38;0.90;;;0.90;;
10523;SDS011;5310;48.638;9.060;2024-03-02T12:44:04;1.00;;;1.00;;
10523;SDS011;5310;48.638;9.060;2024-03-02T12:46:34;0.90;;;0.90;;
10523;SDS011;5310;48.638;9.060;2024-03-02T12:49:11;0.97;;;0.97;;
10523;SDS011;5310;48.638;9.060;2024-03-02T12:51:37;1.00;;;1.00;;
10523;SDS011;5310;48.638;9.060;2024-03-02T12:54:05;1.03;;;1.03;;
10523;SDS011;5310;48.638;9.060;2024-03-02T12:56:31;1.00;;;1.00;;
10523;SDS011;5310;48.638;9.060;2024-03-02T12:58:58;1.10;;;1.10;;
10523;SDS011;5310;48.638;9.060;2024-03-02T13:01:24;1.20;;;1.20;;
10523;SDS011;5310;48.638;9.060;2024-03-02T13:03:51;1.20;;;1.20;;
10523;SDS011;5310;48.638;9.060;2024-03-02T13:06:17;1.00;;;1.00;;
10523;SDS011;5310;48.638;9.060;2024-03-02T13:08:43;1.10;;;1.10;;
10523;SDS011;5310;48.638;9.060;2024-03-02T13:11:10;1.00;;;1.00;;
10523;SDS011;5310;48.638;9.060;2024-03-02T13:13:36;1.13;;;1.13;;
10523;SDS011;5310;48.638;9.060;2024-03-02T13:16:03;1.07;;;1.07;;
10523;SDS011;5310;48.638;9.060;2024-03-02T13:18:29;1.17;;;1.17;;
10523;SDS011;5310;48.638;9.060;2024-03-02T13:20:56;1.13;;;1.13;;
10523;SDS011;5310;48.638;9.060;2024-03-02T13:23:22;1.10;;;1.10;;
10523;SDS011;5310;48.638;9.060;2024-03-02T13:25:48;1.20;;;1.20;;
10523;SDS011;5310;48.638;9.060;2024-03-02T13:28:14;1.03;;;1.03;;
10523;SDS011;5310;48.638;9.060;2024-03-02T13:30:40;1.50;;;1.40;;
10523;SDS011;5310;48.638;9.060;2024-03-02T13:33:06;1.00;;;1.00;;
10523;SDS011;5310;48.638;9.060;2024-03-02T13:35:32;1.07;;;1.07;;
10523;SDS011;5310;48.638;9.060;2024-03-02T13:37:58;1.00;;;1.00;;
10523;SDS011;5310;48.638;9.060;2024-03-02T13:40:24;1.20;;;1.20;;
10523;SDS011;5310;48.638;9.060;2024-03-02T13:42:50;1.20;;;1.20;;
10523;SDS011;5310;48.638;9.060;2024-03-02T13:45:17;1.10;;;1.10;;
10523;SDS011;5310;48.638;9.060;2024-03-02T13:47:43;1.20;;;1.20;;
10523;SDS011;5310;48.638;9.060;2024-03-02T13:50:09;1.00;;;1.00;;
10523;SDS011;5310;48.638;9.060;2024-03-02T13:52:35;1.30;;;1.20;;
10523;SDS011;5310;48.638;9.060;2024-03-02T13:55:01;1.20;;;1.20;;
10523;SDS011;5310;48.638;9.060;2024-03-02T13:57:27;1.10;;;1.10;;
10523;SDS011;5310;48.638;9.060;2024-03-02T13:59:53;0.70;;;0.70;;
10523;SDS011;5310;48.638;9.060;2024-03-02T14:02:19;0.70;;;0.70;;
10523;SDS011;5310;48.638;9.060;2024-03-02T14:04:46;0.60;;;0.60;;
10523;SDS011;5310;48.638;9.060;2024-03-02T14:07:14;0.80;;;0.80;;
10523;SDS011;5310;48.638;9.060;2024-03-02T14:09:40;1.03;;;1.03;;
10523;SDS011;5310;48.638;9.060;2024-03-02T14:12:06;1.23;;;1.23;;
10523;SDS011;5310;48.638;9.060;2024-03-02T14:14:32;0.90;;;0.90;;
10523;SDS011;5310;48.638;9.060;2024-03-02T14:16:58;1.00;;;1.00;;
10523;SDS011;5310;48.638;9.060;2024-03-02T14:19:28;1.00;;;1.00;;
10523;SDS011;5310;48.638;9.060;2024-03-02T14:21:54;1.10;;;1.10;;
10523;SDS011;5310;48.638;9.060;2024-03-02T14:24:21;1.10;;;1.10;;
10523;SDS011;5310;48.638;9.060;2024-03-02T14:26:51;1.00;;;1.00;;
10523;SDS011;5310;48.638;9.060;2024-03-02T14:29:17;1.10;;;1.10;;
10523;SDS011;5310;48.638;9.060;2024-03-02T14:31:43;1.43;;;1.33;;
10523;SDS011;5310;48.638;9.060;2024-03-02T14:34:13;1.00;;;1.00;;
10523;SDS011;5310;48.638;9.060;2024-03-02T14:36:39;0.90;;;0.90;;
10523;SDS011;5310;48.638;9.060;2024-03-02T14:39:05;1.00;;;1.00;;
10523;SDS011;5310;48.638;9.060;2024-03-02T14:41:35;0.93;;;0.93;;
10523;SDS011;5310;48.638;9.060;2024-03-02T14:44:02;1.00;;;1.00;;
10523;SDS011;5310;48.638;9.060;2024-03-02T14:46:27;1.00;;;1.00;;
10523;SDS011;5310;48.638;9.060;2024-03-02T14:48:53;0.90;;;0.90;;
10523;SDS011;5310;48.638;9.060;2024-03-02T14:51:19;1.00;;;1.00;;
10523;SDS011;5310;48.638;9.060;2024-03-02T14:53:45;1.10;;;1.10;;
10523;SDS011;5310;48.638;9.060;2024-03-02T14:56:11;0.90;;;0.90;;
10523;SDS011;5310;48.638;9.060;2024-03-02T14:58:40;1.00;;;1.00;;
10523;SDS011;5310;48.638;9.060;2024-03-02T15:01:06;1.00;;;1.00;;
10523;SDS011;5310;48.638;9.060;2024-03-02T15:03:33;0.93;;;0.93;;